sensor_id;sensor_type;location;lat;lon;timestamp;P1;durP1;ratioP1;P2;durP2;ratioP2
8268;SDS011;4174;48.304;16.364;2024-02-23T00:04:44;6.53;;;2.40;;
8268;SDS011;4174;48.304;16.364;2024-02-23T00:10:48;6.40;;;2.10;;
8268;SDS011;4174;48.304;16.364;2024-02-23T00:16:52;7.53;;;2.27;;
8268;SDS011;4174;48.304;16.364;2024-02-23T00:22:57;7.23;;;2.60;;
8268;SDS011;4174;48.304;16.364;2024-02-23T00:29:02;6.90;;;2.72;;
8268;SDS011;4174;48.304;16.364;2024-02-23T00:35:05;8.00;;;3.20;;
8268;SDS011;4174;48.304;16.364;2024-02-23T00:41:10;8.77;;;3.20;;
8268;SDS011;4174;48.304;16.364;2024-02-23T00:47:13;8.37;;;3.20;;
8268;SDS011;4174;48.304;16.364;2024-02-23T00:53:17;8.63;;;3.10;;
8268;SDS011;4174;48.304;16.364;2024-02-23T00:59:21;8.57;;;3.50;;
8268;SDS011;4174;48.304;16.364;2024-02-23T01:05:25;9.52;;;3.70;;
8268;SDS011;4174;48.304;16.364;2024-02-23T01:11:28;8.73;;;4.10;;
8268;SDS011;4174;48.304;16.364;2024-02-23T01:17:32;9.60;;;3.95;;
8268;SDS011;4174;48.304;16.364;2024-02-23T01:23:36;9.00;;;3.60;;
8268;SDS011;4174;48.304;16.364;2024-02-23T01:29:40;7.75;;;3.42;;
8268;SDS011;4174;48.304;16.364;2024-02-23T01:35:44;7.97;;;3.50;;
8268;SDS011;4174;48.304;16.364;2024-02-23T01:41:48;8.30;;;3.60;;
8268;SDS011;4174;48.304;16.364;2024-02-23T01:47:52;8.50;;;4.05;;
8268;SDS011;4174;48.304;16.364;2024-02-23T01:53:55;9.93;;;4.00;;
8268;SDS011;4174;48.304;16.364;2024-02-23T01:59:58;8.63;;;3.93;;
8268;SDS011;4174;48.304;16.364;2024-02-23T02:06:03;8.82;;;3.72;;
8268;SDS011;4174;48.304;16.364;2024-02-23T02:12:07;10.50;;;3.58;;
8268;SDS011;4174;48.304;16.364;2024-02-23T02:18:11;8.45;;;3.62;;
8268;SDS011;4174;48.304;16.364;2024-02-23T02:24:15;8.30;;;3.60;;
8268;SDS011;4174;48.304;16.364;2024-02-23T02:30:19;8.30;;;3.80;;
8268;SDS011;4174;48.304;16.364;2024-02-23T02:36:23;9.00;;;4.00;;
8268;SDS011;4174;48.304;16.364;2024-02-23T02:42:26;8.30;;;3.70;;
8268;SDS011;4174;48.304;16.364;2024-02-23T02:48:30;9.30;;;4.00;;
8268;SDS011;4174;48.304;16.364;2024-02-23T02:54:33;9.47;;;4.13;;
8268;SDS011;4174;48.304;16.364;2024-02-23T03:00:37;10.07;;;4.30;;
8268;SDS011;4174;48.304;16.364;2024-02-23T03:06:41;8.98;;;4.03;;
8268;SDS011;4174;48.304;16.364;2024-02-23T03:12:45;8.87;;;3.93;;
8268;SDS011;4174;48.304;16.364;2024-02-23T03:18:48;8.80;;;3.77;;
8268;SDS011;4174;48.304;16.364;2024-02-23T03:24:52;8.45;;;3.70;;
8268;SDS011;4174;48.304;16.364;2024-02-23T03:30:56;9.40;;;3.77;;
8268;SDS011;4174;48.304;16.364;2024-02-23T03:36:59;8.85;;;3.70;;
8268;SDS011;4174;48.304;16.364;2024-02-23T03:43:04;9.10;;;4.00;;
8268;SDS011;4174;48.304;16.364;2024-02-23T03:49:07;10.13;;;4.22;;
8268;SDS011;4174;48.304;16.364;2024-02-23T03:55:11;16.50;;;8.23;;
8268;SDS011;4174;48.304;16.364;2024-02-23T04:01:15;21.67;;;11.30;;
8268;SDS011;4174;48.304;16.364;2024-02-23T04:07:19;23.07;;;11.20;;
8268;SDS011;4174;48.304;16.364;2024-02-23T04:13:22;22.33;;;11.90;;
8268;SDS011;4174;48.304;16.364;2024-02-23T04:19:25;25.97;;;12.60;;
8268;SDS011;4174;48.304;16.364;2024-02-23T04:25:29;22.25;;;11.52;;
8268;SDS011;4174;48.304;16.364;2024-02-23T04:31:33;20.30;;;10.40;;
8268;SDS011;4174;48.304;16.364;2024-02-23T04:37:36;16.85;;;7.70;;
8268;SDS011;4174;48.304;16.364;2024-02-23T04:43:40;11.87;;;5.40;;
8268;SDS011;4174;48.304;16.364;2024-02-23T04:49:43;9.73;;;4.30;;
8268;SDS011;4174;48.304;16.364;2024-02-23T04:55:47;7.10;;;3.03;;
8268;SDS011;4174;48.304;16.364;2024-02-23T05:01:51;5.95;;;2.30;;
8268;SDS011;4174;48.304;16.364;2024-02-23T05:07:55;5.57;;;1.97;;
8268;SDS011;4174;48.304;16.364;2024-02-23T05:13:58;5.20;;;1.70;;
8268;SDS011;4174;48.304;16.364;2024-02-23T05:20:02;5.43;;;1.70;;
8268;SDS011;4174;48.304;16.364;2024-02-23T05:26:07;5.72;;;1.87;;
8268;SDS011;4174;48.304;16.364;2024-02-23T05:32:11;4.80;;;1.53;;
8268;SDS011;4174;48.304;16.364;2024-02-23T05:38:15;4.90;;;1.50;;
8268;SDS011;4174;48.304;16.364;2024-02-23T05:44:17;4.97;;;1.20;;
8268;SDS011;4174;48.304;16.364;2024-02-23T05:50:21;4.50;;;1.27;;
8268;SDS011;4174;48.304;16.364;2024-02-23T05:56:25;3.80;;;1.00;;
8268;SDS011;4174;48.304;16.364;2024-02-23T06:02:29;3.83;;;1.00;;
8268;SDS011;4174;48.304;16.364;2024-02-23T06:08:33;3.67;;;0.90;;
8268;SDS011;4174;48.304;16.364;2024-02-23T06:14:36;4.63;;;0.90;;
8268;SDS011;4174;48.304;16.364;2024-02-23T06:20:40;4.07;;;0.90;;
8268;SDS011;4174;48.304;16.364;2024-02-23T06:26:44;3.83;;;1.00;;
8268;SDS011;4174;48.304;16.364;2024-02-23T06:32:46;4.20;;;0.90;;
8268;SDS011;4174;48.304;16.364;2024-02-23T06:38:51;3.80;;;1.00;;
8268;SDS011;4174;48.304;16.364;2024-02-23T06:44:55;3.83;;;0.90;;
8268;SDS011;4174;48.304;16.364;2024-02-23T06:50:59;3.58;;;0.90;;
8268;SDS011;4174;48.304;16.364;2024-02-23T06:57:03;3.23;;;0.70;;
8268;SDS011;4174;48.304;16.364;2024-02-23T07:03:07;4.18;;;0.98;;
8268;SDS011;4174;48.304;16.364;2024-02-23T07:09:12;3.90;;;0.90;;
8268;SDS011;4174;48.304;16.364;2024-02-23T07:15:16;3.28;;;0.70;;
8268;SDS011;4174;48.304;16.364;2024-02-23T07:21:20;3.43;;;0.80;;
8268;SDS011;4174;48.304;16.364;2024-02-23T07:27:25;4.23;;;1.17;;
8268;SDS011;4174;48.304;16.364;2024-02-23T07:33:27;3.37;;;0.80;;
8268;SDS011;4174;48.304;16.364;2024-02-23T07:39:31;3.35;;;0.60;;
8268;SDS011;4174;48.304;16.364;2024-02-23T07:45:35;7.33;;;1.50;;
8268;SDS011;4174;48.304;16.364;2024-02-23T07:51:38;3.73;;;0.80;;
8268;SDS011;4174;48.304;16.364;2024-02-23T07:57:42;2.40;;;0.50;;
8268;SDS011;4174;48.304;16.364;2024-02-23T08:03:46;2.43;;;0.50;;
8268;SDS011;4174;48.304;16.364;2024-02-23T08:09:49;2.22;;;0.40;;
8268;SDS011;4174;48.304;16.364;2024-02-23T08:15:53;2.10;;;0.40;;
8268;SDS011;4174;48.304;16.364;2024-02-23T08:21:57;3.80;;;0.50;;
8268;SDS011;4174;48.304;16.364;2024-02-23T08:28:01;3.30;;;0.50;;
8268;SDS011;4174;48.304;16.364;2024-02-23T08:34:05;3.97;;;0.60;;
8268;SDS011;4174;48.304;16.364;2024-02-23T08:40:09;3.57;;;0.60;;
8268;SDS011;4174;48.304;16.364;2024-02-23T08:46:13;3.12;;;0.52;;
8268;SDS011;4174;48.304;16.364;2024-02-23T08:52:17;3.80;;;0.63;;
8268;SDS011;4174;48.304;16.364;2024-02-23T08:58:21;3.07;;;0.60;;
8268;SDS011;4174;48.304;16.364;2024-02-23T09:04:24;2.67;;;0.50;;
8268;SDS011;4174;48.304;16.364;2024-02-23T09:10:28;3.60;;;0.60;;
8268;SDS011;4174;48.304;16.364;2024-02-23T09:16:31;4.57;;;0.80;;
8268;SDS011;4174;48.304;16.364;2024-02-23T09:22:34;2.83;;;0.60;;
8268;SDS011;4174;48.304;16.364;2024-02-23T09:28:38;3.23;;;0.70;;
8268;SDS011;4174;48.304;16.364;2024-02-23T09:34:43;4.30;;;0.93;;
8268;SDS011;4174;48.304;16.364;2024-02-23T09:40:46;4.97;;;1.10;;
8268;SDS011;4174;48.304;16.364;2024-02-23T09:46:51;4.40;;;0.90;;
8268;SDS011;4174;48.304;16.364;2024-02-23T09:52:54;3.53;;;0.70;;
8268;SDS011;4174;48.304;16.364;2024-02-23T09:58:59;3.50;;;0.63;;
8268;SDS011;4174;48.304;16.364;2024-02-23T10:05:00;4.23;;;0.93;;
8268;SDS011;4174;48.304;16.364;2024-02-23T10:11:03;4.07;;;0.80;;
8268;SDS011;4174;48.304;16.364;2024-02-23T10:17:06;4.23;;;1.00;;
8268;SDS011;4174;48.304;16.364;2024-02-23T10:23:11;7.22;;;2.10;;
8268;SDS011;4174;48.304;16.364;2024-02-23T10:29:16;5.20;;;1.50;;
8268;SDS011;4174;48.304;16.364;2024-02-23T10:35:20;26.47;;;8.87;;
8268;SDS011;4174;48.304;16.364;2024-02-23T10:41:23;9.65;;;3.22;;
8268;SDS011;4174;48.304;16.364;2024-02-23T10:47:26;12.77;;;4.47;;
8268;SDS011;4174;48.304;16.364;2024-02-23T10:53:29;4.53;;;1.00;;
8268;SDS011;4174;48.304;16.364;2024-02-23T10:59:32;5.10;;;1.20;;
8268;SDS011;4174;48.304;16.364;2024-02-23T11:05:35;7.62;;;2.50;;
8268;SDS011;4174;48.304;16.364;2024-02-23T11:11:37;6.63;;;2.10;;
8268;SDS011;4174;48.304;16.364;2024-02-23T11:17:40;5.03;;;1.50;;
8268;SDS011;4174;48.304;16.364;2024-02-23T11:23:47;3.10;;;0.70;;
8268;SDS011;4174;48.304;16.364;2024-02-23T11:29:59;3.30;;;0.70;;
8268;SDS011;4174;48.304;16.364;2024-02-23T11:36:05;4.17;;;0.80;;
8268;SDS011;4174;48.304;16.364;2024-02-23T11:42:08;3.80;;;0.90;;
8268;SDS011;4174;48.304;16.364;2024-02-23T11:48:11;4.83;;;1.40;;
8268;SDS011;4174;48.304;16.364;2024-02-23T11:54:14;4.10;;;1.10;;
8268;SDS011;4174;48.304;16.364;2024-02-23T12:00:19;4.83;;;1.30;;
8268;SDS011;4174;48.304;16.364;2024-02-23T12:06:23;4.12;;;1.15;;
8268;SDS011;4174;48.304;16.364;2024-02-23T12:12:26;5.23;;;1.40;;
8268;SDS011;4174;48.304;16.364;2024-02-23T12:18:29;6.20;;;1.70;;
8268;SDS011;4174;48.304;16.364;2024-02-23T12:24:32;5.90;;;1.60;;
8268;SDS011;4174;48.304;16.364;2024-02-23T12:30:36;3.83;;;0.90;;
8268;SDS011;4174;48.304;16.364;2024-02-23T12:36:40;4.53;;;1.05;;
8268;SDS011;4174;48.304;16.364;2024-02-23T12:42:44;4.10;;;0.90;;
8268;SDS011;4174;48.304;16.364;2024-02-23T12:48:47;3.20;;;0.70;;
8268;SDS011;4174;48.304;16.364;2024-02-23T12:54:51;3.90;;;0.90;;
8268;SDS011;4174;48.304;16.364;2024-02-23T13:00:55;3.80;;;0.82;;
8268;SDS011;4174;48.304;16.364;2024-02-23T13:06:58;5.37;;;1.20;;
8268;SDS011;4174;48.304;16.364;2024-02-23T13:13:03;3.92;;;1.00;;
8268;SDS011;4174;48.304;16.364;2024-02-23T13:19:07;4.05;;;0.90;;
8268;SDS011;4174;48.304;16.364;2024-02-23T13:25:11;3.73;;;0.90;;
8268;SDS011;4174;48.304;16.364;2024-02-23T13:31:15;3.73;;;0.90;;
8268;SDS011;4174;48.304;16.364;2024-02-23T13:37:18;5.73;;;1.53;;
8268;SDS011;4174;48.304;16.364;2024-02-23T13:43:22;4.70;;;0.90;;
8268;SDS011;4174;48.304;16.364;2024-02-23T13:49:26;3.87;;;0.80;;
8268;SDS011;4174;48.304;16.364;2024-02-23T13:55:30;4.05;;;1.05;;
8268;SDS011;4174;48.304;16.364;2024-02-23T14:01:34;4.43;;;1.10;;
8268;SDS011;4174;48.304;16.364;2024-02-23T14:07:38;3.93;;;0.87;;
8268;SDS011;4174;48.304;16.364;2024-02-23T14:13:41;3.73;;;0.90;;
8268;SDS011;4174;48.304;16.364;2024-02-23T14:19:46;3.80;;;0.90;;
8268;SDS011;4174;48.304;16.364;2024-02-23T14:25:50;4.68;;;1.30;;
8268;SDS011;4174;48.304;16.364;2024-02-23T14:31:54;4.00;;;1.10;;
8268;SDS011;4174;48.304;16.364;2024-02-23T14:37:57;4.70;;;1.20;;
8268;SDS011;4174;48.304;16.364;2024-02-23T14:44:01;4.77;;;1.60;;
8268;SDS011;4174;48.304;16.364;2024-02-23T14:50:05;5.55;;;1.75;;
8268;SDS011;4174;48.304;16.364;2024-02-23T14:56:10;6.20;;;2.10;;
8268;SDS011;4174;48.304;16.364;2024-02-23T15:02:22;6.20;;;2.00;;
8268;SDS011;4174;48.304;16.364;2024-02-23T15:08:20;5.77;;;2.10;;
8268;SDS011;4174;48.304;16.364;2024-02-23T15:14:23;6.23;;;2.00;;
8268;SDS011;4174;48.304;16.364;2024-02-23T15:20:27;7.60;;;2.50;;
8268;SDS011;4174;48.304;16.364;2024-02-23T15:26:30;5.83;;;2.20;;
8268;SDS011;4174;48.304;16.364;2024-02-23T15:32:34;7.85;;;3.30;;
8268;SDS011;4174;48.304;16.364;2024-02-23T15:38:37;7.33;;;2.60;;
8268;SDS011;4174;48.304;16.364;2024-02-23T15:44:40;8.67;;;3.90;;
8268;SDS011;4174;48.304;16.364;2024-02-23T15:50:44;7.60;;;3.42;;
8268;SDS011;4174;48.304;16.364;2024-02-23T15:56:47;9.20;;;4.30;;
8268;SDS011;4174;48.304;16.364;2024-02-23T16:02:51;10.53;;;4.27;;
8268;SDS011;4174;48.304;16.364;2024-02-23T16:08:55;9.10;;;3.47;;
8268;SDS011;4174;48.304;16.364;2024-02-23T16:14:59;9.60;;;3.90;;
8268;SDS011;4174;48.304;16.364;2024-02-23T16:21:02;7.90;;;3.40;;
8268;SDS011;4174;48.304;16.364;2024-02-23T16:27:06;8.10;;;3.20;;
8268;SDS011;4174;48.304;16.364;2024-02-23T16:33:11;7.75;;;3.12;;
8268;SDS011;4174;48.304;16.364;2024-02-23T16:39:15;7.95;;;3.30;;
8268;SDS011;4174;48.304;16.364;2024-02-23T16:45:19;8.55;;;3.70;;
8268;SDS011;4174;48.304;16.364;2024-02-23T16:51:23;8.63;;;3.40;;
8268;SDS011;4174;48.304;16.364;2024-02-23T16:57:26;8.43;;;3.53;;
8268;SDS011;4174;48.304;16.364;2024-02-23T17:03:30;8.50;;;3.60;;
8268;SDS011;4174;48.304;16.364;2024-02-23T17:09:33;8.55;;;3.70;;
8268;SDS011;4174;48.304;16.364;2024-02-23T17:15:37;8.57;;;3.70;;
8268;SDS011;4174;48.304;16.364;2024-02-23T17:21:41;8.50;;;3.40;;
8268;SDS011;4174;48.304;16.364;2024-02-23T17:27:44;8.00;;;3.30;;
8268;SDS011;4174;48.304;16.364;2024-02-23T17:33:48;9.33;;;3.60;;
8268;SDS011;4174;48.304;16.364;2024-02-23T17:39:53;9.05;;;3.72;;
8268;SDS011;4174;48.304;16.364;2024-02-23T17:45:58;9.38;;;3.85;;
8268;SDS011;4174;48.304;16.364;2024-02-23T17:52:02;8.43;;;3.63;;
8268;SDS011;4174;48.304;16.364;2024-02-23T17:58:07;8.43;;;3.58;;
8268;SDS011;4174;48.304;16.364;2024-02-23T18:04:10;8.83;;;3.70;;
8268;SDS011;4174;48.304;16.364;2024-02-23T18:10:14;12.15;;;5.12;;
8268;SDS011;4174;48.304;16.364;2024-02-23T18:16:18;11.43;;;4.97;;
8268;SDS011;4174;48.304;16.364;2024-02-23T18:22:22;8.90;;;3.80;;
8268;SDS011;4174;48.304;16.364;2024-02-23T18:28:26;8.93;;;4.00;;
8268;SDS011;4174;48.304;16.364;2024-02-23T18:34:29;9.57;;;3.90;;
8268;SDS011;4174;48.304;16.364;2024-02-23T18:40:34;7.97;;;3.30;;
8268;SDS011;4174;48.304;16.364;2024-02-23T18:46:38;9.32;;;3.72;;
8268;SDS011;4174;48.304;16.364;2024-02-23T18:52:40;7.70;;;2.80;;
8268;SDS011;4174;48.304;16.364;2024-02-23T18:58:44;7.50;;;3.00;;
8268;SDS011;4174;48.304;16.364;2024-02-23T19:04:48;6.55;;;2.40;;
8268;SDS011;4174;48.304;16.364;2024-02-23T19:10:51;6.53;;;2.07;;
8268;SDS011;4174;48.304;16.364;2024-02-23T19:16:56;5.57;;;2.00;;
8268;SDS011;4174;48.304;16.364;2024-02-23T19:23:00;4.95;;;1.70;;
8268;SDS011;4174;48.304;16.364;2024-02-23T19:29:03;6.80;;;1.90;;
8268;SDS011;4174;48.304;16.364;2024-02-23T19:35:08;5.82;;;1.65;;
8268;SDS011;4174;48.304;16.364;2024-02-23T19:41:12;5.50;;;1.58;;
8268;SDS011;4174;48.304;16.364;2024-02-23T19:47:16;4.70;;;1.30;;
8268;SDS011;4174;48.304;16.364;2024-02-23T19:53:20;6.60;;;1.20;;
8268;SDS011;4174;48.304;16.364;2024-02-23T19:59:24;3.65;;;0.90;;
8268;SDS011;4174;48.304;16.364;2024-02-23T20:05:28;3.57;;;0.77;;
8268;SDS011;4174;48.304;16.364;2024-02-23T20:11:31;3.83;;;0.80;;
8268;SDS011;4174;48.304;16.364;2024-02-23T20:17:35;2.80;;;0.60;;
8268;SDS011;4174;48.304;16.364;2024-02-23T20:23:38;3.63;;;0.80;;
8268;SDS011;4174;48.304;16.364;2024-02-23T20:29:42;4.00;;;0.77;;
8268;SDS011;4174;48.304;16.364;2024-02-23T20:35:45;2.97;;;0.60;;
8268;SDS011;4174;48.304;16.364;2024-02-23T20:41:49;3.03;;;0.60;;
8268;SDS011;4174;48.304;16.364;2024-02-23T20:47:53;3.10;;;0.60;;
8268;SDS011;4174;48.304;16.364;2024-02-23T20:53:56;3.43;;;0.70;;
8268;SDS011;4174;48.304;16.364;2024-02-23T21:00:02;3.08;;;0.60;;
8268;SDS011;4174;48.304;16.364;2024-02-23T21:06:08;2.87;;;0.60;;
8268;SDS011;4174;48.304;16.364;2024-02-23T21:12:11;2.95;;;0.60;;
8268;SDS011;4174;48.304;16.364;2024-02-23T21:18:14;2.65;;;0.57;;
8268;SDS011;4174;48.304;16.364;2024-02-23T21:24:17;3.00;;;0.70;;
8268;SDS011;4174;48.304;16.364;2024-02-23T21:30:20;3.00;;;0.60;;
8268;SDS011;4174;48.304;16.364;2024-02-23T21:36:24;3.87;;;0.70;;
8268;SDS011;4174;48.304;16.364;2024-02-23T21:42:28;3.37;;;0.70;;
8268;SDS011;4174;48.304;16.364;2024-02-23T21:48:31;3.53;;;0.80;;
8268;SDS011;4174;48.304;16.364;2024-02-23T21:54:34;3.55;;;0.80;;
8268;SDS011;4174;48.304;16.364;2024-02-23T22:00:37;3.43;;;0.70;;
8268;SDS011;4174;48.304;16.364;2024-02-23T22:06:41;3.10;;;0.65;;
8268;SDS011;4174;48.304;16.364;2024-02-23T22:12:45;4.53;;;1.20;;
8268;SDS011;4174;48.304;16.364;2024-02-23T22:18:49;3.40;;;0.70;;
8268;SDS011;4174;48.304;16.364;2024-02-23T22:24:53;3.50;;;0.80;;
8268;SDS011;4174;48.304;16.364;2024-02-23T22:30:57;3.00;;;0.70;;
8268;SDS011;4174;48.304;16.364;2024-02-23T22:37:01;3.10;;;0.70;;
8268;SDS011;4174;48.304;16.364;2024-02-23T22:43:05;3.60;;;0.80;;
8268;SDS011;4174;48.304;16.364;2024-02-23T22:49:09;3.77;;;0.90;;
8268;SDS011;4174;48.304;16.364;2024-02-23T22:55:12;3.45;;;0.80;;
8268;SDS011;4174;48.304;16.364;2024-02-23T23:01:15;4.50;;;1.10;;
8268;SDS011;4174;48.304;16.364;2024-02-23T23:07:18;3.20;;;0.77;;
8268;SDS011;4174;48.304;16.364;2024-02-23T23:13:22;3.40;;;0.70;;
8268;SDS011;4174;48.304;16.364;2024-02-23T23:19:26;2.90;;;0.60;;
8268;SDS011;4174;48.304;16.364;2024-02-23T23:25:30;3.00;;;0.50;;
8268;SDS011;4174;48.304;16.364;2024-02-23T23:31:35;2.33;;;0.50;;
8268;SDS011;4174;48.304;16.364;2024-02-23T23:37:38;2.40;;;0.50;;
8268;SDS011;4174;48.304;16.364;2024-02-23T23:43:42;2.13;;;0.40;;
8268;SDS011;4174;48.304;16.364;2024-02-23T23:49:46;2.62;;;0.50;;
8268;SDS011;4174;48.304;16.364;2024-02-23T23:55:50;2.70;;;0.60;;
